Time;durP1;ratioP1;P1;durP2;ratioP2;P2;SDS_P1;SDS_P2;PMS_P1;PMS_P2;Temp;Humidity;BMP_temperature;BMP_pressure;BME280_temperature;BME280_humidity;BME280_pressure;Samples;Min_cycle;Max_cycle;Signal;HPM_P1;HPM_P2
2022/03/06 00:01:16;;;;;;;65.80;28.50;;;3.70;99.60;;;;;;7338722;19;112859;-83
2022/03/06 00:03:47;;;;;;;65.10;28.43;;;3.60;99.90;;;;;;7334261;19;113917;-84
2022/03/06 00:06:14;;;;;;;63.00;28.43;;;3.50;99.90;;;;;;7334494;19;111398;-83
2022/03/06 00:08:42;;;;;;;66.17;28.23;;;3.50;99.90;;;;;;7332421;19;111815;-84
2022/03/06 00:11:09;;;;;;;67.47;28.80;;;3.50;99.90;;;;;;7335740;19;110832;-84
2022/03/06 00:13:36;;;;;;;57.93;26.73;;;3.50;99.90;;;;;;7330010;19;111329;-84
2022/03/06 00:16:03;;;;;;;65.50;28.87;;;3.50;99.90;;;;;;7334132;19;114214;-83
2022/03/06 00:18:31;;;;;;;65.73;29.37;;;3.50;99.90;;;;;;7334280;19;110561;-84
2022/03/06 00:20:59;;;;;;;62.30;28.37;;;3.40;99.90;;;;;;7333265;19;112155;-83
2022/03/06 00:23:26;;;;;;;61.50;27.47;;;3.40;99.90;;;;;;7340512;19;112436;-83
2022/03/06 00:25:53;;;;;;;66.07;28.67;;;3.40;99.90;;;;;;7330056;19;113501;-83
2022/03/06 00:28:20;;;;;;;58.23;26.07;;;3.30;99.90;;;;;;7333760;19;112408;-83
2022/03/06 00:30:48;;;;;;;55.77;26.27;;;3.20;99.90;;;;;;7333307;19;111144;-83
2022/03/06 00:33:15;;;;;;;61.50;26.63;;;3.20;99.90;;;;;;7330196;19;111390;-84
2022/03/06 00:35:42;;;;;;;61.03;27.33;;;3.10;99.90;;;;;;7334687;19;111934;-84
2022/03/06 00:38:09;;;;;;;62.63;28.20;;;3.10;99.90;;;;;;7330332;19;111142;-84
2022/03/06 00:40:36;;;;;;;59.00;26.60;;;3.10;99.90;;;;;;7333322;19;111743;-84
2022/03/06 00:43:03;;;;;;;59.87;27.10;;;3.10;99.90;;;;;;7333326;19;112339;-83
2022/03/06 00:45:31;;;;;;;65.07;26.07;;;3.10;99.90;;;;;;7337581;19;110420;-83
2022/03/06 00:47:58;;;;;;;57.93;26.17;;;3.10;99.90;;;;;;7334787;19;115293;-84
2022/03/06 00:50:25;;;;;;;56.77;25.97;;;3.10;99.90;;;;;;7332654;19;112191;-84
2022/03/06 00:52:57;;;;;;;54.47;26.50;;;3.10;99.90;;;;;;7332058;19;110973;-84
2022/03/06 00:55:24;;;;;;;55.80;25.20;;;3.00;99.90;;;;;;7331843;19;112032;-83
2022/03/06 00:57:51;;;;;;;54.37;24.67;;;3.00;99.90;;;;;;7331080;19;111689;-83
2022/03/06 01:00:18;;;;;;;58.33;26.10;;;2.90;99.90;;;;;;7334741;19;115060;-84
2022/03/06 01:02:47;;;;;;;58.93;26.07;;;2.90;99.90;;;;;;7330107;19;111337;-83
2022/03/06 01:05:14;;;;;;;58.60;25.13;;;2.90;99.90;;;;;;7331424;19;110767;-83
2022/03/06 01:07:41;;;;;;;59.00;24.87;;;2.90;99.90;;;;;;7337811;19;111226;-83
2022/03/06 01:10:09;;;;;;;54.07;24.80;;;2.90;99.90;;;;;;7330242;19;113462;-83
2022/03/06 01:12:36;;;;;;;60.50;25.70;;;2.90;99.90;;;;;;7332882;19;111407;-84
2022/03/06 01:15:03;;;;;;;54.73;24.30;;;2.80;99.90;;;;;;7329793;19;112680;-84
2022/03/06 01:17:30;;;;;;;55.23;25.00;;;2.80;99.90;;;;;;7337097;19;110664;-83
2022/03/06 01:19:57;;;;;;;56.07;24.73;;;2.80;99.90;;;;;;7339103;19;111437;-84
2022/03/06 01:22:24;;;;;;;55.00;24.07;;;2.80;99.90;;;;;;7335880;19;112046;-83
2022/03/06 01:24:51;;;;;;;52.37;24.77;;;2.70;99.90;;;;;;7340520;19;110730;-84
2022/03/06 01:27:18;;;;;;;51.63;24.27;;;2.70;99.90;;;;;;7335836;19;111747;-84
2022/03/06 01:29:45;;;;;;;52.67;24.13;;;2.70;99.90;;;;;;7343522;19;113023;-83
2022/03/06 01:32:12;;;;;;;54.63;25.33;;;2.70;99.90;;;;;;7339231;19;111025;-83
2022/03/06 01:34:39;;;;;;;53.93;24.80;;;2.70;99.90;;;;;;7335431;19;111768;-84
2022/03/06 01:37:07;;;;;;;54.20;24.83;;;2.70;99.90;;;;;;7338181;19;110962;-83
2022/03/06 01:39:34;;;;;;;52.30;24.27;;;2.70;99.90;;;;;;7333256;19;111349;-83
2022/03/06 01:42:02;;;;;;;52.53;23.40;;;2.60;99.90;;;;;;7336311;19;112128;-83
2022/03/06 01:44:29;;;;;;;51.27;24.03;;;2.60;99.90;;;;;;7338988;19;113344;-83
2022/03/06 01:46:56;;;;;;;54.83;24.33;;;2.50;99.90;;;;;;7338039;19;111389;-83
2022/03/06 01:49:23;;;;;;;52.77;23.23;;;2.50;99.90;;;;;;7343973;19;111931;-83
2022/03/06 01:51:51;;;;;;;52.73;24.23;;;2.50;99.90;;;;;;7336374;19;111161;-83
2022/03/06 01:54:18;;;;;;;51.17;23.70;;;2.40;99.90;;;;;;7334585;19;116662;-84
2022/03/06 01:56:45;;;;;;;52.67;23.20;;;2.40;99.90;;;;;;7337854;19;110544;-83
2022/03/06 01:59:12;;;;;;;51.67;23.77;;;2.40;99.90;;;;;;7334703;19;111879;-83
2022/03/06 02:01:39;;;;;;;49.93;23.63;;;2.40;99.90;;;;;;7337563;19;112235;-84
2022/03/06 02:04:06;;;;;;;50.57;22.50;;;2.40;99.90;;;;;;7336602;19;111006;-83
2022/03/06 02:06:35;;;;;;;56.00;23.20;;;2.30;99.90;;;;;;7337100;19;111307;-84
2022/03/06 02:09:03;;;;;;;54.90;24.47;;;2.30;99.90;;;;;;7337197;19;112309;-83
2022/03/06 02:11:30;;;;;;;49.40;22.70;;;2.30;99.90;;;;;;7339551;19;111776;-83
2022/03/06 02:13:59;;;;;;;55.57;24.40;;;2.30;99.90;;;;;;7335719;19;110794;-83
2022/03/06 02:16:26;;;;;;;50.83;23.47;;;2.30;99.90;;;;;;7336952;19;110561;-83
2022/03/06 02:18:53;;;;;;;53.97;23.70;;;2.20;99.90;;;;;;7336598;19;111459;-82
2022/03/06 02:21:20;;;;;;;53.17;22.60;;;2.20;99.90;;;;;;7338176;19;111826;-83
2022/03/06 02:23:47;;;;;;;52.07;22.90;;;2.20;99.90;;;;;;7332688;19;110191;-83
2022/03/06 02:26:15;;;;;;;51.67;22.47;;;2.20;99.90;;;;;;7334999;19;115144;-83
2022/03/06 02:28:43;;;;;;;46.10;22.73;;;2.20;99.90;;;;;;7337386;19;111783;-83
2022/03/06 02:31:12;;;;;;;54.07;24.47;;;2.10;99.90;;;;;;7335333;19;113101;-83
2022/03/06 02:33:39;;;;;;;51.77;23.00;;;2.20;99.90;;;;;;7343395;19;111515;-83
2022/03/06 02:36:06;;;;;;;52.00;23.30;;;2.10;99.90;;;;;;7334161;19;110301;-83
2022/03/06 02:38:34;;;;;;;52.53;23.67;;;2.10;99.90;;;;;;7336567;19;112289;-83
2022/03/06 02:41:01;;;;;;;52.30;22.73;;;2.00;99.90;;;;;;7337725;19;111220;-83
2022/03/06 02:43:28;;;;;;;48.50;21.53;;;2.00;99.90;;;;;;7334608;19;110002;-83
2022/03/06 02:45:55;;;;;;;51.70;22.50;;;2.00;99.90;;;;;;7336506;19;111437;-84
2022/03/06 02:48:22;;;;;;;49.03;22.00;;;2.00;99.90;;;;;;7334818;19;111214;-83
2022/03/06 02:50:51;;;;;;;54.33;21.90;;;2.00;99.90;;;;;;7335759;19;110903;-83
2022/03/06 02:53:19;;;;;;;50.80;23.03;;;2.00;99.90;;;;;;7335839;19;111393;-83
2022/03/06 02:55:46;;;;;;;48.60;21.80;;;2.00;99.90;;;;;;7339652;19;114974;-83
2022/03/06 02:58:13;;;;;;;50.87;22.37;;;2.00;99.90;;;;;;7337862;19;113101;-82
2022/03/06 03:00:40;;;;;;;51.93;22.23;;;2.00;99.90;;;;;;7336040;19;112209;-83
2022/03/06 03:03:08;;;;;;;50.77;21.17;;;2.00;99.90;;;;;;7335139;19;111008;-83
2022/03/06 03:05:35;;;;;;;56.63;22.73;;;1.90;99.90;;;;;;7337507;19;111656;-83
2022/03/06 03:08:02;;;;;;;50.30;22.57;;;1.90;99.90;;;;;;7333532;19;113755;-83
2022/03/06 03:10:29;;;;;;;47.67;21.57;;;1.90;99.90;;;;;;7335011;19;110179;-83
2022/03/06 03:12:56;;;;;;;44.70;21.70;;;1.90;99.90;;;;;;7335988;19;111388;-83
2022/03/06 03:15:24;;;;;;;49.13;22.23;;;1.90;99.90;;;;;;7331429;19;111783;-83
2022/03/06 03:17:51;;;;;;;46.30;21.33;;;1.80;99.90;;;;;;7342758;19;109951;-83
2022/03/06 03:20:18;;;;;;;47.00;22.07;;;1.80;99.90;;;;;;7335148;19;111895;-83
2022/03/06 03:22:46;;;;;;;48.57;20.87;;;1.80;99.90;;;;;;7338280;19;110474;-83
2022/03/06 03:25:13;;;;;;;50.17;21.60;;;1.70;99.90;;;;;;7335983;19;111676;-83
2022/03/06 03:27:40;;;;;;;48.60;21.10;;;1.70;99.90;;;;;;7333548;19;111735;-83
2022/03/06 03:30:09;;;;;;;47.67;21.60;;;1.70;99.90;;;;;;7337015;19;110156;-82
2022/03/06 03:32:38;;;;;;;44.20;20.63;;;1.80;99.90;;;;;;7332410;19;111374;-83
2022/03/06 03:35:05;;;;;;;45.17;21.17;;;1.70;99.90;;;;;;7333811;19;113219;-83
2022/03/06 03:37:33;;;;;;;45.17;21.00;;;1.80;99.90;;;;;;7335209;19;110452;-83
2022/03/06 03:40:00;;;;;;;46.33;21.13;;;1.80;99.90;;;;;;7336830;19;110894;-83
2022/03/06 03:42:27;;;;;;;47.43;21.17;;;1.80;99.90;;;;;;7336406;19;114403;-83
2022/03/06 03:44:54;;;;;;;45.73;21.07;;;1.70;99.90;;;;;;7332181;19;111022;-83
2022/03/06 03:47:21;;;;;;;46.57;21.47;;;1.60;99.90;;;;;;7335428;19;114657;-83
2022/03/06 03:49:49;;;;;;;48.13;21.63;;;1.60;99.90;;;;;;7333068;19;110433;-83
2022/03/06 03:52:16;;;;;;;48.30;20.90;;;1.60;99.90;;;;;;7333479;19;111495;-83
2022/03/06 03:54:43;;;;;;;47.07;21.47;;;1.50;99.90;;;;;;7333723;19;112314;-83
2022/03/06 03:57:10;;;;;;;44.23;20.07;;;1.60;99.90;;;;;;7330193;19;110723;-83
2022/03/06 03:59:37;;;;;;;48.90;21.63;;;1.60;99.90;;;;;;7340102;19;111273;-83
2022/03/06 04:02:04;;;;;;;46.53;20.80;;;1.60;99.90;;;;;;7334538;19;110237;-83
2022/03/06 04:04:32;;;;;;;52.87;21.70;;;1.60;99.90;;;;;;7331718;19;111019;-83
2022/03/06 04:06:59;;;;;;;43.87;20.27;;;1.60;99.90;;;;;;7334637;19;110730;-83
2022/03/06 04:09:26;;;;;;;41.77;20.40;;;1.70;99.90;;;;;;7331964;19;111891;-83
2022/03/06 04:11:53;;;;;;;43.77;20.57;;;1.60;99.90;;;;;;7331720;19;111802;-83
2022/03/06 04:14:20;;;;;;;44.23;20.30;;;1.60;99.90;;;;;;7333692;19;111838;-83
2022/03/06 04:16:47;;;;;;;46.93;20.73;;;1.50;99.90;;;;;;7331807;19;111020;-83
2022/03/06 04:19:14;;;;;;;47.10;21.27;;;1.50;99.90;;;;;;7335638;19;111909;-83
2022/03/06 04:21:42;;;;;;;40.93;20.10;;;1.40;99.90;;;;;;7337377;19;111765;-83
2022/03/06 04:24:09;;;;;;;42.63;20.50;;;1.40;99.90;;;;;;7332161;19;111410;-82
2022/03/06 04:26:36;;;;;;;45.33;20.37;;;1.40;99.90;;;;;;7334643;19;111791;-83
2022/03/06 04:29:04;;;;;;;43.93;20.43;;;1.40;99.90;;;;;;7332091;19;113540;-83
2022/03/06 04:31:31;;;;;;;44.63;20.10;;;1.40;99.90;;;;;;7334167;19;111927;-83
2022/03/06 04:33:58;;;;;;;42.73;20.23;;;1.50;99.90;;;;;;7334028;19;111065;-83
2022/03/06 04:36:26;;;;;;;43.57;20.40;;;1.50;99.90;;;;;;7332216;19;112642;-83
2022/03/06 04:38:53;;;;;;;46.03;20.50;;;1.50;99.90;;;;;;7335525;19;111411;-82
2022/03/06 04:41:20;;;;;;;47.90;21.30;;;1.50;99.90;;;;;;7330356;19;111816;-83
2022/03/06 04:43:48;;;;;;;44.00;20.23;;;1.40;99.90;;;;;;7338257;19;111010;-84
2022/03/06 04:46:15;;;;;;;46.73;20.67;;;1.40;99.90;;;;;;7333552;19;112659;-84
2022/03/06 04:48:42;;;;;;;41.63;19.33;;;1.40;99.90;;;;;;7334904;19;109911;-83
2022/03/06 04:51:10;;;;;;;45.60;20.07;;;1.40;99.90;;;;;;7341360;19;114608;-83
2022/03/06 04:53:38;;;;;;;43.57;20.33;;;1.30;99.90;;;;;;7336569;19;112102;-83
2022/03/06 04:56:05;;;;;;;41.87;19.87;;;1.30;99.90;;;;;;7338957;19;111028;-83
2022/03/06 04:58:32;;;;;;;43.10;20.93;;;1.20;99.90;;;;;;7340831;19;111769;-83
2022/03/06 05:01:00;;;;;;;42.67;20.20;;;1.20;99.90;;;;;;7338888;19;111783;-83
2022/03/06 05:03:27;;;;;;;42.03;19.60;;;1.20;99.90;;;;;;7340160;19;110178;-83
2022/03/06 05:05:55;;;;;;;44.50;19.80;;;1.20;99.90;;;;;;7342090;19;113110;-83
2022/03/06 05:08:22;;;;;;;44.30;20.57;;;1.20;99.90;;;;;;7336588;19;110203;-83
2022/03/06 05:10:49;;;;;;;50.07;21.07;;;1.20;99.90;;;;;;7336623;19;111600;-83
2022/03/06 05:13:16;;;;;;;43.57;20.40;;;1.20;99.90;;;;;;7337771;19;111729;-83
2022/03/06 05:15:44;;;;;;;43.80;20.90;;;1.20;99.90;;;;;;7338193;19;110721;-83
2022/03/06 05:18:11;;;;;;;40.57;19.60;;;1.10;99.90;;;;;;7337315;19;112154;-83
2022/03/06 05:20:38;;;;;;;43.80;18.47;;;1.20;99.90;;;;;;7338560;19;110848;-84
2022/03/06 05:23:05;;;;;;;41.83;19.33;;;1.20;99.90;;;;;;7340382;19;111502;-83
2022/03/06 05:25:32;;;;;;;41.17;19.97;;;1.10;99.90;;;;;;7336107;19;111466;-83
2022/03/06 05:28:00;;;;;;;39.67;18.60;;;1.10;99.90;;;;;;7345474;19;110721;-83
2022/03/06 05:30:27;;;;;;;42.00;19.60;;;1.10;99.90;;;;;;7333249;19;111005;-83
2022/03/06 05:32:54;;;;;;;38.90;18.70;;;1.10;99.90;;;;;;7339450;19;111629;-83
2022/03/06 05:35:21;;;;;;;48.60;20.27;;;1.10;99.90;;;;;;7338496;19;110644;-83
2022/03/06 05:37:49;;;;;;;43.10;19.97;;;1.00;99.90;;;;;;7335702;19;111108;-83
2022/03/06 05:40:16;;;;;;;38.73;19.67;;;1.00;99.90;;;;;;7338950;19;113302;-83
2022/03/06 05:42:47;;;;;;;39.07;19.10;;;1.10;99.90;;;;;;7334864;19;110723;-83
2022/03/06 05:45:14;;;;;;;42.93;19.97;;;1.10;99.90;;;;;;7335551;19;111412;-83
2022/03/06 05:47:41;;;;;;;41.50;20.07;;;1.00;99.90;;;;;;7342237;19;112135;-83
2022/03/06 05:50:11;;;;;;;39.63;19.53;;;1.00;99.90;;;;;;7335630;19;114054;-83
2022/03/06 05:52:39;;;;;;;39.67;18.30;;;1.00;99.90;;;;;;7337285;19;111799;-83
2022/03/06 05:55:07;;;;;;;40.23;19.90;;;0.90;99.90;;;;;;7336618;19;110533;-83
2022/03/06 05:57:34;;;;;;;42.53;20.23;;;1.00;99.90;;;;;;7337391;19;112729;-82
2022/03/06 06:00:08;;;;;;;38.37;18.07;;;0.90;99.90;;;;;;7339314;19;113848;-83
2022/03/06 06:02:39;;;;;;;40.30;19.00;;;1.00;99.90;;;;;;7336043;19;110388;-83
2022/03/06 06:05:08;;;;;;;35.93;18.90;;;0.90;99.90;;;;;;7337712;19;111438;-83
2022/03/06 06:07:36;;;;;;;42.77;19.87;;;0.90;99.90;;;;;;7336964;19;111803;-83
2022/03/06 06:10:04;;;;;;;39.33;20.17;;;0.90;99.90;;;;;;7342417;19;110724;-84
2022/03/06 06:12:31;;;;;;;36.03;19.20;;;0.90;99.90;;;;;;7338843;19;111393;-83
2022/03/06 06:15:01;;;;;;;36.67;19.03;;;0.90;99.90;;;;;;7333498;19;111962;-84
2022/03/06 06:17:28;;;;;;;38.90;18.50;;;0.90;99.90;;;;;;7338218;19;114431;-83
2022/03/06 06:19:55;;;;;;;37.83;17.87;;;1.00;99.90;;;;;;7336949;19;110546;-83
2022/03/06 06:22:22;;;;;;;39.73;19.03;;;1.00;99.90;;;;;;7334064;19;110123;-83
2022/03/06 06:24:49;;;;;;;38.83;18.67;;;1.00;99.90;;;;;;7336622;19;111403;-83
2022/03/06 06:27:16;;;;;;;36.27;18.10;;;1.00;99.90;;;;;;7335267;19;111891;-83
2022/03/06 06:29:43;;;;;;;38.97;19.23;;;1.00;99.90;;;;;;7336720;19;115820;-82
2022/03/06 06:32:11;;;;;;;38.83;18.67;;;0.90;99.90;;;;;;7341651;19;115277;-83
2022/03/06 06:34:38;;;;;;;38.43;18.87;;;0.90;99.90;;;;;;7333015;19;111180;-83
2022/03/06 06:37:05;;;;;;;34.47;17.30;;;0.90;99.90;;;;;;7338606;19;111373;-83
2022/03/06 06:39:32;;;;;;;34.50;18.27;;;0.90;99.90;;;;;;7334541;19;111345;-83
2022/03/06 06:42:03;;;;;;;36.53;19.03;;;0.90;99.90;;;;;;7337363;19;111156;-83
2022/03/06 06:44:31;;;;;;;34.30;18.27;;;0.90;99.90;;;;;;7336427;19;111861;-83
2022/03/06 06:46:59;;;;;;;36.57;17.67;;;0.90;99.90;;;;;;7332495;19;110959;-83
2022/03/06 06:49:27;;;;;;;36.33;18.33;;;0.90;99.90;;;;;;7334598;19;112788;-83
2022/03/06 06:51:54;;;;;;;38.53;18.03;;;1.00;99.90;;;;;;7337377;19;111471;-83
2022/03/06 06:54:20;;;;;;;32.63;17.83;;;1.00;99.90;;;;;;7338897;19;111694;-83
2022/03/06 06:56:48;;;;;;;36.60;19.10;;;1.00;99.90;;;;;;7338816;19;110748;-83
2022/03/06 06:59:16;;;;;;;33.60;18.17;;;1.00;99.90;;;;;;7334146;19;111875;-83
2022/03/06 07:01:43;;;;;;;34.20;17.63;;;1.10;99.90;;;;;;7335237;19;111410;-83
2022/03/06 07:04:10;;;;;;;38.07;18.30;;;1.20;99.90;;;;;;7337120;19;110986;-83
2022/03/06 07:06:37;;;;;;;39.47;17.97;;;1.20;99.90;;;;;;7332020;19;111754;-83
2022/03/06 07:09:04;;;;;;;38.80;18.47;;;1.20;99.90;;;;;;7332649;19;110747;-83
2022/03/06 07:11:31;;;;;;;32.40;17.77;;;1.20;99.90;;;;;;7336827;19;111195;-86
2022/03/06 07:13:59;;;;;;;43.07;18.40;;;1.20;99.90;;;;;;7334616;19;111764;-86
2022/03/06 07:16:30;;;;;;;32.47;18.03;;;1.20;99.90;;;;;;7341319;19;110701;-86
2022/03/06 07:18:58;;;;;;;35.43;18.33;;;1.20;99.90;;;;;;7333211;19;111750;-86
2022/03/06 07:21:25;;;;;;;33.93;18.70;;;1.30;99.90;;;;;;7338050;19;110808;-87
2022/03/06 07:23:52;;;;;;;34.40;17.93;;;1.30;99.90;;;;;;7334462;19;112140;-87
2022/03/06 07:26:19;;;;;;;34.00;17.77;;;1.30;99.90;;;;;;7333588;19;110985;-88
2022/03/06 07:28:46;;;;;;;36.03;18.83;;;1.40;99.90;;;;;;7336718;19;111369;-89
2022/03/06 07:31:13;;;;;;;31.50;16.83;;;1.40;99.90;;;;;;7335413;19;110703;-88
2022/03/06 07:33:40;;;;;;;31.80;17.47;;;1.40;99.90;;;;;;7335293;19;112058;-87
2022/03/06 07:36:08;;;;;;;33.43;17.87;;;1.50;99.90;;;;;;7333533;19;110397;-87
2022/03/06 07:38:35;;;;;;;30.90;17.70;;;1.50;99.90;;;;;;7339148;19;111667;-88
2022/03/06 07:41:02;;;;;;;29.70;17.47;;;1.50;99.90;;;;;;7337551;19;110373;-87
2022/03/06 07:43:29;;;;;;;31.60;17.00;;;1.60;99.90;;;;;;7333501;19;111746;-87
2022/03/06 07:45:57;;;;;;;32.00;17.33;;;1.70;99.90;;;;;;7336260;19;111750;-87
2022/03/06 07:48:24;;;;;;;29.30;16.63;;;1.80;99.90;;;;;;7337454;19;111293;-87
2022/03/06 07:50:51;;;;;;;32.50;17.60;;;1.90;99.90;;;;;;7336331;19;110757;-87
2022/03/06 07:53:18;;;;;;;31.93;17.77;;;1.80;99.90;;;;;;7337748;19;110756;-88
2022/03/06 07:55:46;;;;;;;35.13;17.07;;;1.80;99.90;;;;;;7334140;19;110129;-88
2022/03/06 07:58:13;;;;;;;30.53;17.33;;;1.90;99.90;;;;;;7339836;19;110434;-86
2022/03/06 08:00:41;;;;;;;30.93;17.13;;;1.90;99.90;;;;;;7334608;19;111330;-90
2022/03/06 08:03:08;;;;;;;30.77;17.50;;;2.00;99.90;;;;;;7334052;19;112582;-87
2022/03/06 08:05:35;;;;;;;29.47;16.77;;;2.10;99.90;;;;;;7335972;19;111836;-87
2022/03/06 08:08:03;;;;;;;30.80;17.57;;;2.10;99.90;;;;;;7336602;19;111217;-88
2022/03/06 08:10:30;;;;;;;33.03;17.23;;;2.10;99.90;;;;;;7335022;19;111765;-88
2022/03/06 08:12:58;;;;;;;30.83;17.60;;;2.20;99.90;;;;;;7337376;19;114758;-90
2022/03/06 08:15:25;;;;;;;28.80;16.53;;;2.20;99.90;;;;;;7334277;19;111912;-88
2022/03/06 08:17:52;;;;;;;27.73;17.03;;;2.40;99.90;;;;;;7336885;19;110552;-89
2022/03/06 08:20:19;;;;;;;30.23;16.83;;;2.40;99.90;;;;;;7341123;19;111826;-89
2022/03/06 08:22:46;;;;;;;30.03;17.23;;;2.40;99.90;;;;;;7336474;19;111633;-88
2022/03/06 08:25:13;;;;;;;30.20;16.20;;;2.50;99.90;;;;;;7342681;19;111403;-88
2022/03/06 08:27:41;;;;;;;29.47;17.17;;;2.60;99.90;;;;;;7339052;19;112630;-87
2022/03/06 08:30:08;;;;;;;25.43;15.33;;;2.60;99.90;;;;;;7340452;19;111606;-86
2022/03/06 08:32:37;;;;;;;36.07;17.83;;;2.60;99.90;;;;;;7340943;19;111619;-86
2022/03/06 08:35:04;;;;;;;28.13;16.67;;;2.60;99.90;;;;;;7340195;19;110532;-88
2022/03/06 08:37:31;;;;;;;29.97;16.83;;;2.70;99.90;;;;;;7343209;19;113600;-88
2022/03/06 08:39:59;;;;;;;27.50;16.03;;;2.80;99.90;;;;;;7338862;19;115310;-89
2022/03/06 08:42:26;;;;;;;28.00;16.67;;;3.00;99.90;;;;;;7346040;19;112135;-87
2022/03/06 08:44:53;;;;;;;33.57;17.63;;;3.00;99.90;;;;;;7342295;19;110793;-87
2022/03/06 08:47:20;;;;;;;27.63;16.37;;;3.00;99.90;;;;;;7340508;19;110188;-89
2022/03/06 08:49:48;;;;;;;27.63;16.57;;;3.00;99.90;;;;;;7339776;19;111396;-86
2022/03/06 08:52:15;;;;;;;26.30;16.17;;;3.00;99.90;;;;;;7337211;19;110741;-87
2022/03/06 08:54:42;;;;;;;25.20;16.57;;;3.10;99.90;;;;;;7339732;19;113100;-87
2022/03/06 08:57:09;;;;;;;28.70;16.67;;;3.20;99.90;;;;;;7334849;19;113112;-88
2022/03/06 08:59:37;;;;;;;30.73;16.43;;;3.20;99.90;;;;;;7338645;19;112014;-89
2022/03/06 09:02:04;;;;;;;27.53;16.47;;;3.30;99.90;;;;;;7340127;19;110610;-88
2022/03/06 09:04:33;;;;;;;25.97;15.63;;;3.30;99.90;;;;;;7343115;19;112065;-86
2022/03/06 09:07:00;;;;;;;24.03;15.87;;;3.40;99.90;;;;;;7340441;19;113638;-87
2022/03/06 09:09:27;;;;;;;31.00;16.20;;;3.40;99.90;;;;;;7341748;19;111762;-89
2022/03/06 09:11:54;;;;;;;25.97;16.73;;;3.50;99.90;;;;;;7339682;19;115024;-89
2022/03/06 09:14:22;;;;;;;25.07;15.80;;;3.60;99.90;;;;;;7341710;19;110117;-88
2022/03/06 09:16:49;;;;;;;27.53;16.27;;;3.60;99.90;;;;;;7340100;19;111542;-87
2022/03/06 09:19:16;;;;;;;27.50;15.90;;;3.60;99.90;;;;;;7339103;19;112086;-87
2022/03/06 09:21:43;;;;;;;26.27;15.77;;;3.60;99.90;;;;;;7342190;19;111180;-89
2022/03/06 09:24:11;;;;;;;25.13;15.57;;;3.80;99.90;;;;;;7337263;19;110830;-90
2022/03/06 09:26:39;;;;;;;23.33;15.17;;;3.80;99.80;;;;;;7342587;19;112018;-95
2022/03/06 09:29:09;;;;;;;24.60;15.57;;;3.90;99.80;;;;;;7342486;19;114101;-89
2022/03/06 09:31:36;;;;;;;26.13;14.83;;;4.00;99.30;;;;;;7345953;19;111044;-90
2022/03/06 09:34:03;;;;;;;21.33;14.47;;;4.10;99.20;;;;;;7347452;19;110263;-90
2022/03/06 09:36:44;;;;;;;21.20;14.17;;;4.20;99.50;;;;;;7345719;19;111437;-89
2022/03/06 09:39:13;;;;;;;21.60;13.43;;;4.40;99.20;;;;;;7344905;19;111369;-88
2022/03/06 09:41:40;;;;;;;22.27;14.40;;;4.50;98.80;;;;;;7347341;19;110320;-90
2022/03/06 09:44:10;;;;;;;20.80;14.57;;;4.50;99.00;;;;;;7342411;19;111402;-88
2022/03/06 09:46:39;;;;;;;21.00;13.87;;;4.60;97.70;;;;;;7342658;19;113811;-89
2022/03/06 09:49:08;;;;;;;17.90;12.53;;;4.70;98.30;;;;;;7349571;19;110255;-91
2022/03/06 09:51:40;;;;;;;18.97;13.10;;;4.80;97.80;;;;;;7342590;19;113014;-86
2022/03/06 09:54:12;;;;;;;19.10;12.70;;;4.90;97.80;;;;;;7338022;19;112148;-85
2022/03/06 09:56:40;;;;;;;18.20;12.97;;;5.00;96.70;;;;;;7337911;19;111870;-85
2022/03/06 09:59:07;;;;;;;20.90;14.10;;;5.10;96.90;;;;;;7341333;19;111789;-86
2022/03/06 10:01:34;;;;;;;18.13;12.13;;;5.20;97.00;;;;;;7338419;19;110336;-87
2022/03/06 10:04:25;;;;;;;17.50;12.33;;;5.40;96.90;;;;;;7339853;19;111414;-87
2022/03/06 10:07:04;;;;;;;19.37;12.43;;;5.50;96.80;;;;;;7338104;19;111754;-86
2022/03/06 10:09:34;;;;;;;18.93;11.97;;;5.40;96.30;;;;;;7339439;19;110593;-86
2022/03/06 10:12:01;;;;;;;17.00;11.40;;;5.40;96.00;;;;;;7336009;19;111892;-87
2022/03/06 10:14:40;;;;;;;17.17;12.60;;;5.50;95.40;;;;;;7339544;19;110453;-88
2022/03/06 10:17:08;;;;;;;17.93;12.33;;;5.50;95.50;;;;;;7338393;19;111133;-87
2022/03/06 10:19:49;;;;;;;16.97;11.23;;;5.60;95.80;;;;;;7347085;19;111756;-90
2022/03/06 10:22:17;;;;;;;17.40;12.50;;;5.80;95.10;;;;;;7346976;19;110287;-89
2022/03/06 10:25:07;;;;;;;18.07;12.33;;;5.90;95.60;;;;;;7342778;19;111303;-90
2022/03/06 10:27:45;;;;;;;15.37;11.00;;;6.10;95.00;;;;;;7343996;19;110993;-89
2022/03/06 10:30:32;;;;;;;14.07;11.07;;;6.30;95.00;;;;;;7342987;19;110188;-90
2022/03/06 10:33:08;;;;;;;16.53;11.90;;;6.30;94.60;;;;;;7349241;19;111569;-91
2022/03/06 10:35:43;;;;;;;14.70;11.38;;;6.20;93.40;;;;;;7345284;19;110100;-89
2022/03/06 10:38:21;;;;;;;17.93;11.53;;;6.20;94.30;;;;;;7341664;19;111125;-90
2022/03/06 10:40:49;;;;;;;16.15;11.95;;;6.40;94.80;;;;;;7344707;19;114702;-91
2022/03/06 10:43:22;;;;;;;14.93;10.47;;;6.40;93.40;;;;;;7341233;19;110917;-89
2022/03/06 10:45:51;;;;;;;14.47;11.37;;;6.30;93.10;;;;;;7341958;19;111424;-90
2022/03/06 10:48:19;;;;;;;16.63;11.57;;;6.40;94.10;;;;;;7345598;19;111735;-90
2022/03/06 10:50:46;;;;;;;15.47;10.80;;;6.60;93.90;;;;;;7344815;19;110580;-90
2022/03/06 10:53:21;;;;;;;12.60;10.13;;;6.80;94.30;;;;;;7344881;19;111387;-89
2022/03/06 10:55:49;;;;;;;13.73;10.63;;;7.00;93.30;;;;;;7347985;19;112606;-89
2022/03/06 10:58:19;;;;;;;17.40;11.40;;;7.00;92.00;;;;;;7341280;19;112801;-90
2022/03/06 11:00:47;;;;;;;14.33;11.40;;;6.80;92.30;;;;;;7336694;19;112257;-92
2022/03/06 11:03:14;;;;;;;16.47;11.87;;;6.80;92.60;;;;;;7337689;19;110291;-91
2022/03/06 11:05:46;;;;;;;15.90;11.47;;;6.90;92.80;;;;;;7341433;19;111472;-88
2022/03/06 11:08:15;;;;;;;13.07;10.80;;;6.90;92.50;;;;;;7336828;19;112320;-87
2022/03/06 11:10:43;;;;;;;14.25;11.00;;;6.80;91.60;;;;;;7337212;19;110952;-89
2022/03/06 11:13:39;;;;;;;;;;;;;;;;;;;;;
2022/03/06 11:16:21;;;;;;;16.50;11.13;;;7.00;92.30;;;;;;7333761;19;111025;-90
2022/03/06 11:18:49;;;;;;;14.87;11.03;;;7.20;92.60;;;;;;7342806;19;111620;-90
2022/03/06 11:21:16;;;;;;;16.97;11.27;;;7.30;92.50;;;;;;7336618;19;111881;-89
2022/03/06 11:23:47;;;;;;;12.80;10.73;;;7.50;91.90;;;;;;7335091;19;110799;-89
2022/03/06 11:26:19;;;;;;;15.00;10.77;;;7.60;91.90;;;;;;7334012;19;112634;-89
2022/03/06 11:29:05;;;;;;;14.55;11.55;;;7.70;91.30;;;;;;7338022;19;115131;-89
2022/03/06 11:31:53;;;;;;;19.33;11.13;;;7.70;91.40;;;;;;7336527;19;110747;-89
2022/03/06 11:34:23;;;;;;;;;;;7.90;91.20;;;;;;7336646;19;110864;-89
2022/03/06 11:36:51;;;;;;;14.25;11.00;;;8.00;90.40;;;;;;7339911;19;112380;-88
2022/03/06 11:39:30;;;;;;;14.23;10.35;;;7.90;90.40;;;;;;7332863;19;109987;-89
2022/03/06 11:42:05;;;;;;;22.85;11.25;;;8.00;90.60;;;;;;7338824;19;111311;-90
2022/03/06 11:44:48;;;;;;;12.85;10.55;;;8.10;91.20;;;;;;7333400;19;111864;-90
2022/03/06 11:47:18;;;;;;;14.32;10.63;;;8.30;91.10;;;;;;7341258;19;110147;-89
2022/03/06 11:49:59;;;;;;;15.05;11.00;;;8.40;90.30;;;;;;7338652;19;111574;-91
2022/03/06 11:52:27;;;;;;;19.13;11.68;;;8.50;89.10;;;;;;7333422;19;110509;-89
2022/03/06 11:54:55;;;;;;;18.40;12.02;;;8.40;87.50;;;;;;7335822;19;110548;-90
2022/03/06 11:57:36;;;;;;;15.23;10.68;;;8.40;88.70;;;;;;7333235;19;111838;-90
2022/03/06 12:00:27;;;;;;;13.77;11.00;;;8.50;85.30;;;;;;7336354;19;110514;-90
2022/03/06 12:02:57;;;;;;;16.10;11.32;;;8.60;86.90;;;;;;7337586;19;110678;-90
2022/03/06 12:05:45;;;;;;;14.57;11.55;;;8.60;87.00;;;;;;7339894;19;110658;-90
2022/03/06 12:08:13;;;;;;;19.05;11.60;;;8.80;87.90;;;;;;7335636;19;110923;-91
2022/03/06 12:10:41;;;;;;;20.90;12.27;;;8.90;87.00;;;;;;7331727;19;111146;-91
2022/03/06 12:13:22;;;;;;;15.73;11.85;;;9.10;88.30;;;;;;7332537;19;111761;-90
2022/03/06 12:16:08;;;;;;;14.35;10.95;;;9.30;86.20;;;;;;7336061;19;113151;-91
2022/03/06 12:18:35;;;;;;;16.55;11.43;;;9.10;84.30;;;;;;7332845;19;112010;-90
2022/03/06 12:21:20;;;;;;;16.70;11.77;;;9.10;85.40;;;;;;7331816;19;110178;-91
2022/03/06 12:23:47;;;;;;;16.95;11.85;;;9.20;84.00;;;;;;7334454;19;111380;-90
2022/03/06 12:26:45;;;;;;;22.90;11.50;;;9.30;85.50;;;;;;7336352;19;111780;-90
2022/03/06 12:29:56;;;;;;;17.50;11.18;;;9.50;83.80;;;;;;7334516;19;111853;-89
2022/03/06 12:32:25;;;;;;;15.98;11.52;;;9.60;84.20;;;;;;7336330;19;111616;-89
2022/03/06 12:35:02;;;;;;;18.65;12.57;;;9.60;81.00;;;;;;7337427;19;111504;-89
2022/03/06 12:37:35;;;;;;;16.03;11.60;;;9.50;81.50;;;;;;7335216;19;110559;-89